sensor_id;sensor_type;location;lat;lon;timestamp;P1;durP1;ratioP1;P2;durP2;ratioP2
45842;SDS011;31563;51.744;8.252;2023-09-30T00:01:54;5.32;;;2.00;;
45842;SDS011;31563;51.744;8.252;2023-09-30T00:04:22;5.38;;;2.30;;
45842;SDS011;31563;51.744;8.252;2023-09-30T00:06:50;5.82;;;2.15;;
45842;SDS011;31563;51.744;8.252;2023-09-30T00:09:18;8.35;;;2.25;;
45842;SDS011;31563;51.744;8.252;2023-09-30T00:11:46;6.00;;;2.17;;
45842;SDS011;31563;51.744;8.252;2023-09-30T00:14:14;7.38;;;2.40;;
45842;SDS011;31563;51.744;8.252;2023-09-30T00:16:45;6.60;;;2.70;;
45842;SDS011;31563;51.744;8.252;2023-09-30T00:19:12;6.25;;;2.55;;
45842;SDS011;31563;51.744;8.252;2023-09-30T00:21:40;6.97;;;2.50;;
45842;SDS011;31563;51.744;8.252;2023-09-30T00:24:09;5.80;;;2.40;;
45842;SDS011;31563;51.744;8.252;2023-09-30T00:26:37;6.22;;;2.53;;
45842;SDS011;31563;51.744;8.252;2023-09-30T00:29:05;6.25;;;2.92;;
45842;SDS011;31563;51.744;8.252;2023-09-30T00:31:33;6.65;;;2.40;;
45842;SDS011;31563;51.744;8.252;2023-09-30T00:34:02;6.45;;;2.97;;
45842;SDS011;31563;51.744;8.252;2023-09-30T00:36:31;9.65;;;2.38;;
45842;SDS011;31563;51.744;8.252;2023-09-30T00:38:59;6.70;;;2.45;;
45842;SDS011;31563;51.744;8.252;2023-09-30T00:41:27;7.47;;;3.10;;
45842;SDS011;31563;51.744;8.252;2023-09-30T00:43:55;6.80;;;2.40;;
45842;SDS011;31563;51.744;8.252;2023-09-30T00:46:25;7.22;;;2.83;;
45842;SDS011;31563;51.744;8.252;2023-09-30T00:48:56;7.20;;;2.50;;
45842;SDS011;31563;51.744;8.252;2023-09-30T00:51:27;9.15;;;2.58;;
45842;SDS011;31563;51.744;8.252;2023-09-30T00:53:56;6.57;;;2.40;;
45842;SDS011;31563;51.744;8.252;2023-09-30T00:56:28;5.32;;;2.22;;
45842;SDS011;31563;51.744;8.252;2023-09-30T00:58:57;7.22;;;3.25;;
45842;SDS011;31563;51.744;8.252;2023-09-30T01:01:26;10.13;;;2.83;;
45842;SDS011;31563;51.744;8.252;2023-09-30T01:03:54;8.00;;;2.30;;
45842;SDS011;31563;51.744;8.252;2023-09-30T01:06:23;5.78;;;2.40;;
45842;SDS011;31563;51.744;8.252;2023-09-30T01:08:52;5.85;;;2.50;;
45842;SDS011;31563;51.744;8.252;2023-09-30T01:11:21;9.18;;;3.35;;
45842;SDS011;31563;51.744;8.252;2023-09-30T01:13:49;8.18;;;2.83;;
45842;SDS011;31563;51.744;8.252;2023-09-30T01:16:17;7.38;;;2.78;;
45842;SDS011;31563;51.744;8.252;2023-09-30T01:18:45;7.82;;;2.70;;
45842;SDS011;31563;51.744;8.252;2023-09-30T01:21:13;7.47;;;2.88;;
45842;SDS011;31563;51.744;8.252;2023-09-30T01:23:43;8.00;;;2.88;;
45842;SDS011;31563;51.744;8.252;2023-09-30T01:26:13;7.40;;;3.00;;
45842;SDS011;31563;51.744;8.252;2023-09-30T01:28:41;6.90;;;2.78;;
45842;SDS011;31563;51.744;8.252;2023-09-30T01:31:10;6.43;;;2.47;;
45842;SDS011;31563;51.744;8.252;2023-09-30T01:33:38;6.50;;;2.58;;
45842;SDS011;31563;51.744;8.252;2023-09-30T01:36:06;7.65;;;2.70;;
45842;SDS011;31563;51.744;8.252;2023-09-30T01:38:34;8.02;;;2.63;;
45842;SDS011;31563;51.744;8.252;2023-09-30T01:41:04;8.77;;;2.80;;
45842;SDS011;31563;51.744;8.252;2023-09-30T01:43:32;9.10;;;3.03;;
45842;SDS011;31563;51.744;8.252;2023-09-30T01:46:02;7.20;;;3.15;;
45842;SDS011;31563;51.744;8.252;2023-09-30T01:48:31;10.23;;;2.60;;
45842;SDS011;31563;51.744;8.252;2023-09-30T01:50:59;6.95;;;2.55;;
45842;SDS011;31563;51.744;8.252;2023-09-30T01:53:27;7.25;;;2.50;;
45842;SDS011;31563;51.744;8.252;2023-09-30T01:55:55;9.23;;;2.95;;
45842;SDS011;31563;51.744;8.252;2023-09-30T01:58:24;8.13;;;2.50;;
45842;SDS011;31563;51.744;8.252;2023-09-30T02:00:53;10.90;;;3.58;;
45842;SDS011;31563;51.744;8.252;2023-09-30T02:03:21;8.63;;;2.72;;
45842;SDS011;31563;51.744;8.252;2023-09-30T02:05:50;5.93;;;2.15;;
45842;SDS011;31563;51.744;8.252;2023-09-30T02:08:18;7.22;;;2.58;;
45842;SDS011;31563;51.744;8.252;2023-09-30T02:10:45;9.27;;;2.33;;
45842;SDS011;31563;51.744;8.252;2023-09-30T02:13:13;5.88;;;2.70;;
45842;SDS011;31563;51.744;8.252;2023-09-30T02:15:47;6.72;;;2.25;;
45842;SDS011;31563;51.744;8.252;2023-09-30T02:18:15;8.55;;;2.65;;
45842;SDS011;31563;51.744;8.252;2023-09-30T02:20:43;8.10;;;2.72;;
45842;SDS011;31563;51.744;8.252;2023-09-30T02:23:11;7.18;;;2.38;;
45842;SDS011;31563;51.744;8.252;2023-09-30T02:25:42;9.32;;;2.88;;
45842;SDS011;31563;51.744;8.252;2023-09-30T02:28:10;7.45;;;2.75;;
45842;SDS011;31563;51.744;8.252;2023-09-30T02:30:39;8.45;;;2.03;;
45842;SDS011;31563;51.744;8.252;2023-09-30T02:33:09;6.03;;;1.25;;
45842;SDS011;31563;51.744;8.252;2023-09-30T02:35:37;5.15;;;2.28;;
45842;SDS011;31563;51.744;8.252;2023-09-30T02:38:06;6.47;;;2.58;;
45842;SDS011;31563;51.744;8.252;2023-09-30T02:40:34;5.35;;;2.17;;
45842;SDS011;31563;51.744;8.252;2023-09-30T02:43:02;8.15;;;2.45;;
45842;SDS011;31563;51.744;8.252;2023-09-30T02:45:30;6.65;;;2.53;;
45842;SDS011;31563;51.744;8.252;2023-09-30T02:47:58;8.13;;;2.55;;
45842;SDS011;31563;51.744;8.252;2023-09-30T02:50:27;6.43;;;2.40;;
45842;SDS011;31563;51.744;8.252;2023-09-30T02:52:55;7.32;;;2.28;;
45842;SDS011;31563;51.744;8.252;2023-09-30T02:55:23;7.60;;;2.88;;
45842;SDS011;31563;51.744;8.252;2023-09-30T02:57:51;8.65;;;2.40;;
45842;SDS011;31563;51.744;8.252;2023-09-30T03:00:21;7.15;;;2.35;;
45842;SDS011;31563;51.744;8.252;2023-09-30T03:02:51;8.80;;;2.75;;
45842;SDS011;31563;51.744;8.252;2023-09-30T03:05:20;9.45;;;3.30;;
45842;SDS011;31563;51.744;8.252;2023-09-30T03:07:50;7.00;;;2.83;;
45842;SDS011;31563;51.744;8.252;2023-09-30T03:10:19;6.32;;;2.40;;
45842;SDS011;31563;51.744;8.252;2023-09-30T03:12:50;6.72;;;2.70;;
45842;SDS011;31563;51.744;8.252;2023-09-30T03:15:18;6.70;;;2.78;;
45842;SDS011;31563;51.744;8.252;2023-09-30T03:17:46;4.90;;;2.67;;
45842;SDS011;31563;51.744;8.252;2023-09-30T03:20:18;5.15;;;2.60;;
45842;SDS011;31563;51.744;8.252;2023-09-30T03:22:48;6.67;;;2.87;;
45842;SDS011;31563;51.744;8.252;2023-09-30T03:25:18;10.00;;;3.92;;
45842;SDS011;31563;51.744;8.252;2023-09-30T03:27:47;6.70;;;2.88;;
45842;SDS011;31563;51.744;8.252;2023-09-30T03:30:15;8.55;;;2.92;;
45842;SDS011;31563;51.744;8.252;2023-09-30T03:32:46;8.20;;;3.15;;
45842;SDS011;31563;51.744;8.252;2023-09-30T03:35:14;7.80;;;3.22;;
45842;SDS011;31563;51.744;8.252;2023-09-30T03:37:44;6.55;;;3.03;;
45842;SDS011;31563;51.744;8.252;2023-09-30T03:40:13;8.97;;;3.27;;
45842;SDS011;31563;51.744;8.252;2023-09-30T03:42:48;7.97;;;3.47;;
45842;SDS011;31563;51.744;8.252;2023-09-30T03:45:16;7.22;;;3.53;;
45842;SDS011;31563;51.744;8.252;2023-09-30T03:47:45;9.43;;;3.33;;
45842;SDS011;31563;51.744;8.252;2023-09-30T03:52:43;10.13;;;3.20;;
45842;SDS011;31563;51.744;8.252;2023-09-30T03:55:13;7.80;;;3.45;;
45842;SDS011;31563;51.744;8.252;2023-09-30T03:57:44;6.93;;;2.88;;
45842;SDS011;31563;51.744;8.252;2023-09-30T04:00:18;5.57;;;2.90;;
45842;SDS011;31563;51.744;8.252;2023-09-30T04:02:47;8.73;;;3.30;;
45842;SDS011;31563;51.744;8.252;2023-09-30T04:05:17;7.60;;;3.42;;
45842;SDS011;31563;51.744;8.252;2023-09-30T04:07:46;8.00;;;3.40;;
45842;SDS011;31563;51.744;8.252;2023-09-30T04:10:14;8.30;;;3.38;;
45842;SDS011;31563;51.744;8.252;2023-09-30T04:12:46;9.13;;;3.25;;
45842;SDS011;31563;51.744;8.252;2023-09-30T04:15:16;9.88;;;3.65;;
45842;SDS011;31563;51.744;8.252;2023-09-30T04:17:44;6.50;;;3.35;;
45842;SDS011;31563;51.744;8.252;2023-09-30T04:20:13;7.38;;;3.63;;
45842;SDS011;31563;51.744;8.252;2023-09-30T04:22:50;7.80;;;3.78;;
45842;SDS011;31563;51.744;8.252;2023-09-30T04:25:23;8.55;;;3.30;;
45842;SDS011;31563;51.744;8.252;2023-09-30T04:27:52;6.78;;;2.95;;
45842;SDS011;31563;51.744;8.252;2023-09-30T04:30:22;8.88;;;3.92;;
45842;SDS011;31563;51.744;8.252;2023-09-30T04:32:50;9.80;;;3.55;;
45842;SDS011;31563;51.744;8.252;2023-09-30T04:35:18;9.77;;;3.72;;
45842;SDS011;31563;51.744;8.252;2023-09-30T04:37:47;6.90;;;3.50;;
45842;SDS011;31563;51.744;8.252;2023-09-30T04:40:15;9.65;;;4.07;;
45842;SDS011;31563;51.744;8.252;2023-09-30T04:42:46;8.02;;;3.22;;
45842;SDS011;31563;51.744;8.252;2023-09-30T04:45:15;7.35;;;3.60;;
45842;SDS011;31563;51.744;8.252;2023-09-30T04:47:48;10.38;;;4.80;;
45842;SDS011;31563;51.744;8.252;2023-09-30T04:50:16;8.85;;;3.95;;
45842;SDS011;31563;51.744;8.252;2023-09-30T04:52:47;6.80;;;3.38;;
45842;SDS011;31563;51.744;8.252;2023-09-30T04:55:16;8.68;;;3.55;;
45842;SDS011;31563;51.744;8.252;2023-09-30T04:57:45;7.90;;;3.30;;
45842;SDS011;31563;51.744;8.252;2023-09-30T05:00:14;9.60;;;3.47;;
45842;SDS011;31563;51.744;8.252;2023-09-30T05:05:14;10.75;;;3.55;;
45842;SDS011;31563;51.744;8.252;2023-09-30T05:07:42;11.82;;;4.80;;
45842;SDS011;31563;51.744;8.252;2023-09-30T05:10:10;10.13;;;5.35;;
45842;SDS011;31563;51.744;8.252;2023-09-30T05:12:42;10.20;;;4.18;;
45842;SDS011;31563;51.744;8.252;2023-09-30T05:15:13;8.27;;;3.72;;
45842;SDS011;31563;51.744;8.252;2023-09-30T05:17:43;9.13;;;4.03;;
45842;SDS011;31563;51.744;8.252;2023-09-30T05:20:11;9.00;;;3.85;;
45842;SDS011;31563;51.744;8.252;2023-09-30T05:22:41;8.07;;;3.80;;
45842;SDS011;31563;51.744;8.252;2023-09-30T05:25:12;6.88;;;3.45;;
45842;SDS011;31563;51.744;8.252;2023-09-30T05:27:42;7.65;;;3.10;;
45842;SDS011;31563;51.744;8.252;2023-09-30T05:30:10;8.82;;;3.83;;
45842;SDS011;31563;51.744;8.252;2023-09-30T05:32:41;8.90;;;3.78;;
45842;SDS011;31563;51.744;8.252;2023-09-30T05:35:09;8.48;;;3.25;;
45842;SDS011;31563;51.744;8.252;2023-09-30T05:37:39;6.93;;;3.00;;
45842;SDS011;31563;51.744;8.252;2023-09-30T05:40:09;12.07;;;5.18;;
45842;SDS011;31563;51.744;8.252;2023-09-30T05:42:46;8.88;;;4.65;;
45842;SDS011;31563;51.744;8.252;2023-09-30T05:45:14;10.77;;;5.38;;
45842;SDS011;31563;51.744;8.252;2023-09-30T05:47:43;14.57;;;5.88;;
45842;SDS011;31563;51.744;8.252;2023-09-30T05:50:14;10.65;;;4.65;;
45842;SDS011;31563;51.744;8.252;2023-09-30T05:52:44;9.10;;;5.13;;
45842;SDS011;31563;51.744;8.252;2023-09-30T05:55:12;15.32;;;5.55;;
45842;SDS011;31563;51.744;8.252;2023-09-30T05:57:41;12.95;;;5.85;;
45842;SDS011;31563;51.744;8.252;2023-09-30T06:00:11;11.35;;;4.75;;
45842;SDS011;31563;51.744;8.252;2023-09-30T06:02:46;10.25;;;4.53;;
45842;SDS011;31563;51.744;8.252;2023-09-30T06:05:14;10.60;;;3.92;;
45842;SDS011;31563;51.744;8.252;2023-09-30T06:07:46;10.82;;;4.47;;
45842;SDS011;31563;51.744;8.252;2023-09-30T06:10:14;11.25;;;4.70;;
45842;SDS011;31563;51.744;8.252;2023-09-30T06:12:48;12.82;;;4.15;;
45842;SDS011;31563;51.744;8.252;2023-09-30T06:15:20;10.40;;;4.00;;
45842;SDS011;31563;51.744;8.252;2023-09-30T06:17:52;12.38;;;3.67;;
45842;SDS011;31563;51.744;8.252;2023-09-30T06:20:21;8.90;;;3.50;;
45842;SDS011;31563;51.744;8.252;2023-09-30T06:22:55;6.85;;;3.20;;
45842;SDS011;31563;51.744;8.252;2023-09-30T06:25:23;6.45;;;3.38;;
45842;SDS011;31563;51.744;8.252;2023-09-30T06:27:52;11.30;;;4.25;;
45842;SDS011;31563;51.744;8.252;2023-09-30T06:30:24;10.20;;;3.55;;
45842;SDS011;31563;51.744;8.252;2023-09-30T06:32:57;8.70;;;3.10;;
45842;SDS011;31563;51.744;8.252;2023-09-30T06:35:27;9.90;;;4.05;;
45842;SDS011;31563;51.744;8.252;2023-09-30T06:38:02;10.93;;;3.45;;
45842;SDS011;31563;51.744;8.252;2023-09-30T06:40:31;7.95;;;2.95;;
45842;SDS011;31563;51.744;8.252;2023-09-30T06:43:04;10.32;;;4.25;;
45842;SDS011;31563;51.744;8.252;2023-09-30T06:45:32;8.75;;;3.60;;
45842;SDS011;31563;51.744;8.252;2023-09-30T06:48:00;9.68;;;3.25;;
45842;SDS011;31563;51.744;8.252;2023-09-30T06:50:28;8.27;;;3.53;;
45842;SDS011;31563;51.744;8.252;2023-09-30T06:52:58;7.63;;;3.30;;
45842;SDS011;31563;51.744;8.252;2023-09-30T06:55:27;8.30;;;3.20;;
45842;SDS011;31563;51.744;8.252;2023-09-30T06:57:57;11.05;;;3.63;;
45842;SDS011;31563;51.744;8.252;2023-09-30T07:00:25;10.50;;;4.43;;
45842;SDS011;31563;51.744;8.252;2023-09-30T07:02:53;12.98;;;4.07;;
45842;SDS011;31563;51.744;8.252;2023-09-30T07:05:22;13.80;;;4.82;;
45842;SDS011;31563;51.744;8.252;2023-09-30T07:07:50;12.48;;;4.85;;
45842;SDS011;31563;51.744;8.252;2023-09-30T07:10:18;9.52;;;4.50;;
45842;SDS011;31563;51.744;8.252;2023-09-30T07:12:47;15.43;;;5.60;;
45842;SDS011;31563;51.744;8.252;2023-09-30T07:15:21;12.45;;;5.13;;
45842;SDS011;31563;51.744;8.252;2023-09-30T07:17:49;12.77;;;4.57;;
45842;SDS011;31563;51.744;8.252;2023-09-30T07:20:17;13.35;;;4.97;;
45842;SDS011;31563;51.744;8.252;2023-09-30T07:22:46;13.40;;;5.15;;
45842;SDS011;31563;51.744;8.252;2023-09-30T07:25:32;11.98;;;4.40;;
45842;SDS011;31563;51.744;8.252;2023-09-30T07:28:02;14.10;;;5.25;;
45842;SDS011;31563;51.744;8.252;2023-09-30T07:30:30;11.88;;;5.15;;
45842;SDS011;31563;51.744;8.252;2023-09-30T07:32:58;14.27;;;5.00;;
45842;SDS011;31563;51.744;8.252;2023-09-30T07:35:29;11.35;;;4.47;;
45842;SDS011;31563;51.744;8.252;2023-09-30T07:37:57;10.93;;;4.32;;
45842;SDS011;31563;51.744;8.252;2023-09-30T07:40:25;10.45;;;4.43;;
45842;SDS011;31563;51.744;8.252;2023-09-30T07:42:54;15.77;;;5.25;;
45842;SDS011;31563;51.744;8.252;2023-09-30T07:45:24;7.90;;;3.65;;
45842;SDS011;31563;51.744;8.252;2023-09-30T07:47:52;11.52;;;3.80;;
45842;SDS011;31563;51.744;8.252;2023-09-30T07:50:21;7.97;;;3.58;;
45842;SDS011;31563;51.744;8.252;2023-09-30T07:52:49;11.13;;;4.10;;
45842;SDS011;31563;51.744;8.252;2023-09-30T07:55:17;9.57;;;3.72;;
45842;SDS011;31563;51.744;8.252;2023-09-30T07:57:45;10.25;;;3.72;;
45842;SDS011;31563;51.744;8.252;2023-09-30T08:00:14;10.32;;;3.28;;
45842;SDS011;31563;51.744;8.252;2023-09-30T08:02:44;12.38;;;4.03;;
45842;SDS011;31563;51.744;8.252;2023-09-30T08:05:12;12.85;;;4.05;;
45842;SDS011;31563;51.744;8.252;2023-09-30T08:07:40;12.13;;;4.00;;
45842;SDS011;31563;51.744;8.252;2023-09-30T08:10:09;11.80;;;3.75;;
45842;SDS011;31563;51.744;8.252;2023-09-30T08:12:40;9.00;;;3.63;;
45842;SDS011;31563;51.744;8.252;2023-09-30T08:15:12;9.68;;;3.75;;
45842;SDS011;31563;51.744;8.252;2023-09-30T08:17:40;13.85;;;4.00;;
45842;SDS011;31563;51.744;8.252;2023-09-30T08:20:10;13.13;;;4.22;;
45842;SDS011;31563;51.744;8.252;2023-09-30T08:22:40;10.60;;;4.07;;
45842;SDS011;31563;51.744;8.252;2023-09-30T08:25:08;8.82;;;3.45;;
45842;SDS011;31563;51.744;8.252;2023-09-30T08:27:37;9.00;;;3.60;;
45842;SDS011;31563;51.744;8.252;2023-09-30T08:30:06;10.60;;;3.97;;
45842;SDS011;31563;51.744;8.252;2023-09-30T08:32:36;9.57;;;4.30;;
45842;SDS011;31563;51.744;8.252;2023-09-30T08:35:05;9.70;;;4.03;;
45842;SDS011;31563;51.744;8.252;2023-09-30T08:37:35;9.15;;;3.92;;
45842;SDS011;31563;51.744;8.252;2023-09-30T08:40:03;8.00;;;3.38;;
45842;SDS011;31563;51.744;8.252;2023-09-30T08:42:32;7.63;;;3.28;;
45842;SDS011;31563;51.744;8.252;2023-09-30T08:45:01;8.50;;;3.40;;
45842;SDS011;31563;51.744;8.252;2023-09-30T08:47:32;9.73;;;3.92;;
45842;SDS011;31563;51.744;8.252;2023-09-30T08:50:01;10.15;;;3.80;;
45842;SDS011;31563;51.744;8.252;2023-09-30T08:52:33;9.82;;;3.88;;
45842;SDS011;31563;51.744;8.252;2023-09-30T08:55:07;8.95;;;3.50;;
45842;SDS011;31563;51.744;8.252;2023-09-30T08:57:36;9.82;;;3.50;;
45842;SDS011;31563;51.744;8.252;2023-09-30T09:00:06;12.32;;;4.50;;
45842;SDS011;31563;51.744;8.252;2023-09-30T09:02:37;12.50;;;4.00;;
45842;SDS011;31563;51.744;8.252;2023-09-30T09:05:06;9.48;;;3.63;;
45842;SDS011;31563;51.744;8.252;2023-09-30T09:07:35;10.27;;;4.18;;
45842;SDS011;31563;51.744;8.252;2023-09-30T09:10:03;7.43;;;3.00;;
45842;SDS011;31563;51.744;8.252;2023-09-30T09:12:33;9.27;;;3.60;;
45842;SDS011;31563;51.744;8.252;2023-09-30T09:15:03;6.75;;;3.30;;
45842;SDS011;31563;51.744;8.252;2023-09-30T09:17:40;9.82;;;3.38;;
45842;SDS011;31563;51.744;8.252;2023-09-30T09:20:10;7.38;;;3.28;;
45842;SDS011;31563;51.744;8.252;2023-09-30T09:22:40;7.88;;;3.50;;
45842;SDS011;31563;51.744;8.252;2023-09-30T09:25:09;7.80;;;3.00;;
45842;SDS011;31563;51.744;8.252;2023-09-30T09:27:39;9.53;;;3.40;;
45842;SDS011;31563;51.744;8.252;2023-09-30T09:30:14;8.98;;;3.28;;
45842;SDS011;31563;51.744;8.252;2023-09-30T09:32:52;9.48;;;3.53;;
45842;SDS011;31563;51.744;8.252;2023-09-30T09:35:31;7.57;;;3.33;;
45842;SDS011;31563;51.744;8.252;2023-09-30T09:38:01;9.20;;;3.38;;
45842;SDS011;31563;51.744;8.252;2023-09-30T09:40:31;7.43;;;3.17;;
45842;SDS011;31563;51.744;8.252;2023-09-30T09:43:22;8.70;;;3.80;;
45842;SDS011;31563;51.744;8.252;2023-09-30T09:46:07;11.82;;;3.53;;
45842;SDS011;31563;51.744;8.252;2023-09-30T09:48:42;8.73;;;3.60;;
45842;SDS011;31563;51.744;8.252;2023-09-30T09:51:13;9.50;;;3.75;;
45842;SDS011;31563;51.744;8.252;2023-09-30T09:56:11;10.55;;;3.80;;
45842;SDS011;31563;51.744;8.252;2023-09-30T09:58:40;8.00;;;3.50;;
45842;SDS011;31563;51.744;8.252;2023-09-30T10:01:10;8.13;;;3.70;;
45842;SDS011;31563;51.744;8.252;2023-09-30T10:03:38;8.43;;;3.17;;
45842;SDS011;31563;51.744;8.252;2023-09-30T10:06:06;6.07;;;2.90;;
45842;SDS011;31563;51.744;8.252;2023-09-30T10:08:36;8.27;;;3.25;;
45842;SDS011;31563;51.744;8.252;2023-09-30T10:11:07;8.20;;;3.60;;
45842;SDS011;31563;51.744;8.252;2023-09-30T10:19:18;7.03;;;2.88;;
45842;SDS011;31563;51.744;8.252;2023-09-30T10:24:49;6.63;;;2.78;;
45842;SDS011;31563;51.744;8.252;2023-09-30T10:27:28;7.07;;;3.00;;
45842;SDS011;31563;51.744;8.252;2023-09-30T10:30:05;6.95;;;3.08;;
45842;SDS011;31563;51.744;8.252;2023-09-30T10:35:46;7.88;;;3.22;;
45842;SDS011;31563;51.744;8.252;2023-09-30T10:38:36;7.30;;;3.13;;
45842;SDS011;31563;51.744;8.252;2023-09-30T10:41:06;8.55;;;3.03;;
45842;SDS011;31563;51.744;8.252;2023-09-30T10:43:36;9.02;;;2.92;;
45842;SDS011;31563;51.744;8.252;2023-09-30T10:52:02;6.22;;;2.28;;
45842;SDS011;31563;51.744;8.252;2023-09-30T10:54:30;7.40;;;3.10;;
45842;SDS011;31563;51.744;8.252;2023-09-30T10:56:59;6.03;;;2.60;;
45842;SDS011;31563;51.744;8.252;2023-09-30T10:59:29;7.07;;;2.40;;
45842;SDS011;31563;51.744;8.252;2023-09-30T11:02:03;5.75;;;2.67;;
45842;SDS011;31563;51.744;8.252;2023-09-30T11:04:44;4.97;;;2.10;;
45842;SDS011;31563;51.744;8.252;2023-09-30T11:07:16;6.93;;;2.95;;
45842;SDS011;31563;51.744;8.252;2023-09-30T11:09:49;6.90;;;2.25;;
45842;SDS011;31563;51.744;8.252;2023-09-30T11:12:17;6.32;;;2.17;;
45842;SDS011;31563;51.744;8.252;2023-09-30T11:14:45;6.82;;;2.53;;
45842;SDS011;31563;51.744;8.252;2023-09-30T11:17:15;4.68;;;2.42;;
45842;SDS011;31563;51.744;8.252;2023-09-30T11:19:50;6.68;;;2.08;;
45842;SDS011;31563;51.744;8.252;2023-09-30T11:22:18;6.28;;;2.20;;
45842;SDS011;31563;51.744;8.252;2023-09-30T11:24:47;6.00;;;2.03;;
45842;SDS011;31563;51.744;8.252;2023-09-30T11:27:21;6.72;;;2.30;;
45842;SDS011;31563;51.744;8.252;2023-09-30T11:29:50;5.55;;;2.30;;
45842;SDS011;31563;51.744;8.252;2023-09-30T11:32:26;8.98;;;2.90;;
45842;SDS011;31563;51.744;8.252;2023-09-30T11:34:56;6.07;;;2.25;;
45842;SDS011;31563;51.744;8.252;2023-09-30T11:37:30;5.72;;;1.88;;
45842;SDS011;31563;51.744;8.252;2023-09-30T11:40:08;7.78;;;2.50;;
45842;SDS011;31563;51.744;8.252;2023-09-30T11:42:39;7.90;;;2.30;;
45842;SDS011;31563;51.744;8.252;2023-09-30T11:45:20;5.05;;;2.08;;
45842;SDS011;31563;51.744;8.252;2023-09-30T11:47:54;7.88;;;2.50;;
45842;SDS011;31563;51.744;8.252;2023-09-30T11:50:24;6.82;;;2.42;;
45842;SDS011;31563;51.744;8.252;2023-09-30T11:52:52;5.95;;;2.08;;
45842;SDS011;31563;51.744;8.252;2023-09-30T11:55:21;5.47;;;2.35;;
45842;SDS011;31563;51.744;8.252;2023-09-30T11:57:50;4.97;;;2.05;;
45842;SDS011;31563;51.744;8.252;2023-09-30T12:00:21;5.22;;;1.80;;
45842;SDS011;31563;51.744;8.252;2023-09-30T12:02:50;5.18;;;2.05;;
45842;SDS011;31563;51.744;8.252;2023-09-30T12:05:21;6.22;;;2.22;;
45842;SDS011;31563;51.744;8.252;2023-09-30T12:07:49;5.93;;;2.22;;
45842;SDS011;31563;51.744;8.252;2023-09-30T12:10:17;6.35;;;2.10;;
45842;SDS011;31563;51.744;8.252;2023-09-30T12:12:45;4.63;;;2.20;;
45842;SDS011;31563;51.744;8.252;2023-09-30T12:15:14;5.63;;;2.40;;
45842;SDS011;31563;51.744;8.252;2023-09-30T12:17:43;6.30;;;2.15;;
45842;SDS011;31563;51.744;8.252;2023-09-30T12:20:11;5.82;;;2.45;;
45842;SDS011;31563;51.744;8.252;2023-09-30T12:22:42;7.05;;;2.35;;
45842;SDS011;31563;51.744;8.252;2023-09-30T12:25:10;5.63;;;1.92;;
45842;SDS011;31563;51.744;8.252;2023-09-30T12:27:38;6.13;;;2.28;;
45842;SDS011;31563;51.744;8.252;2023-09-30T12:30:07;5.90;;;2.33;;
45842;SDS011;31563;51.744;8.252;2023-09-30T12:32:35;6.63;;;2.13;;
45842;SDS011;31563;51.744;8.252;2023-09-30T12:35:05;5.53;;;1.95;;
45842;SDS011;31563;51.744;8.252;2023-09-30T12:37:36;4.45;;;1.85;;
45842;SDS011;31563;51.744;8.252;2023-09-30T12:40:07;5.70;;;2.07;;
45842;SDS011;31563;51.744;8.252;2023-09-30T12:42:37;5.57;;;1.83;;
45842;SDS011;31563;51.744;8.252;2023-09-30T12:45:06;4.57;;;2.00;;
45842;SDS011;31563;51.744;8.252;2023-09-30T12:47:34;6.97;;;2.30;;
45842;SDS011;31563;51.744;8.252;2023-09-30T12:50:03;4.93;;;2.35;;
45842;SDS011;31563;51.744;8.252;2023-09-30T12:52:31;4.30;;;2.10;;
45842;SDS011;31563;51.744;8.252;2023-09-30T12:54:59;8.20;;;2.25;;
45842;SDS011;31563;51.744;8.252;2023-09-30T12:57:28;6.10;;;2.13;;
45842;SDS011;31563;51.744;8.252;2023-09-30T12:59:56;5.88;;;2.22;;
45842;SDS011;31563;51.744;8.252;2023-09-30T13:02:24;5.97;;;2.60;;
45842;SDS011;31563;51.744;8.252;2023-09-30T13:04:53;5.45;;;2.15;;
45842;SDS011;31563;51.744;8.252;2023-09-30T13:07:21;6.35;;;2.25;;
45842;SDS011;31563;51.744;8.252;2023-09-30T13:09:51;4.63;;;1.95;;
45842;SDS011;31563;51.744;8.252;2023-09-30T13:12:19;5.03;;;2.00;;
45842;SDS011;31563;51.744;8.252;2023-09-30T13:14:48;4.47;;;2.10;;
45842;SDS011;31563;51.744;8.252;2023-09-30T13:17:16;5.95;;;2.00;;
45842;SDS011;31563;51.744;8.252;2023-09-30T13:19:44;4.38;;;1.73;;
45842;SDS011;31563;51.744;8.252;2023-09-30T13:22:13;5.90;;;2.03;;
45842;SDS011;31563;51.744;8.252;2023-09-30T13:24:44;5.43;;;2.25;;
45842;SDS011;31563;51.744;8.252;2023-09-30T13:27:13;6.00;;;2.00;;
45842;SDS011;31563;51.744;8.252;2023-09-30T13:29:42;5.30;;;2.50;;
45842;SDS011;31563;51.744;8.252;2023-09-30T13:32:11;5.57;;;2.15;;
45842;SDS011;31563;51.744;8.252;2023-09-30T13:34:40;5.75;;;2.30;;
45842;SDS011;31563;51.744;8.252;2023-09-30T13:37:08;4.90;;;2.22;;
45842;SDS011;31563;51.744;8.252;2023-09-30T13:39:37;4.43;;;1.87;;
45842;SDS011;31563;51.744;8.252;2023-09-30T13:42:05;7.30;;;3.20;;
45842;SDS011;31563;51.744;8.252;2023-09-30T13:44:34;5.57;;;2.67;;
45842;SDS011;31563;51.744;8.252;2023-09-30T13:47:02;5.35;;;2.47;;
45842;SDS011;31563;51.744;8.252;2023-09-30T13:49:32;4.43;;;2.28;;
45842;SDS011;31563;51.744;8.252;2023-09-30T13:52:00;7.10;;;2.47;;
45842;SDS011;31563;51.744;8.252;2023-09-30T13:54:28;5.78;;;2.00;;
45842;SDS011;31563;51.744;8.252;2023-09-30T13:56:56;6.22;;;2.30;;
45842;SDS011;31563;51.744;8.252;2023-09-30T13:59:25;4.70;;;2.10;;
45842;SDS011;31563;51.744;8.252;2023-09-30T14:01:54;4.43;;;2.28;;
45842;SDS011;31563;51.744;8.252;2023-09-30T14:04:21;3.72;;;1.92;;
45842;SDS011;31563;51.744;8.252;2023-09-30T14:06:51;4.88;;;2.20;;
45842;SDS011;31563;51.744;8.252;2023-09-30T14:09:19;5.07;;;2.03;;
45842;SDS011;31563;51.744;8.252;2023-09-30T14:12:01;6.55;;;2.38;;
45842;SDS011;31563;51.744;8.252;2023-09-30T14:14:30;5.25;;;2.03;;
45842;SDS011;31563;51.744;8.252;2023-09-30T14:16:59;4.55;;;2.03;;
45842;SDS011;31563;51.744;8.252;2023-09-30T14:19:33;3.90;;;1.92;;
45842;SDS011;31563;51.744;8.252;2023-09-30T14:22:03;4.37;;;2.13;;
45842;SDS011;31563;51.744;8.252;2023-09-30T14:24:32;6.07;;;1.90;;
45842;SDS011;31563;51.744;8.252;2023-09-30T14:27:00;3.47;;;2.05;;
45842;SDS011;31563;51.744;8.252;2023-09-30T14:29:28;4.32;;;1.80;;
45842;SDS011;31563;51.744;8.252;2023-09-30T14:31:56;5.03;;;1.97;;
45842;SDS011;31563;51.744;8.252;2023-09-30T14:34:25;5.68;;;1.92;;
45842;SDS011;31563;51.744;8.252;2023-09-30T14:36:53;4.95;;;2.00;;
45842;SDS011;31563;51.744;8.252;2023-09-30T14:39:23;3.88;;;1.95;;
45842;SDS011;31563;51.744;8.252;2023-09-30T14:41:51;4.45;;;2.22;;
45842;SDS011;31563;51.744;8.252;2023-09-30T14:44:19;4.63;;;1.83;;
45842;SDS011;31563;51.744;8.252;2023-09-30T14:46:49;5.18;;;2.00;;
45842;SDS011;31563;51.744;8.252;2023-09-30T14:49:17;5.57;;;2.03;;
45842;SDS011;31563;51.744;8.252;2023-09-30T14:51:45;4.68;;;2.10;;
45842;SDS011;31563;51.744;8.252;2023-09-30T14:54:15;6.43;;;2.33;;
45842;SDS011;31563;51.744;8.252;2023-09-30T14:56:44;5.55;;;1.88;;
45842;SDS011;31563;51.744;8.252;2023-09-30T14:59:12;3.50;;;1.95;;
45842;SDS011;31563;51.744;8.252;2023-09-30T15:01:40;6.13;;;2.22;;
45842;SDS011;31563;51.744;8.252;2023-09-30T15:04:09;4.10;;;1.80;;
45842;SDS011;31563;51.744;8.252;2023-09-30T15:06:37;5.20;;;2.37;;
45842;SDS011;31563;51.744;8.252;2023-09-30T15:09:05;5.10;;;1.98;;
45842;SDS011;31563;51.744;8.252;2023-09-30T15:11:35;4.55;;;1.75;;
45842;SDS011;31563;51.744;8.252;2023-09-30T15:14:05;5.10;;;2.38;;
45842;SDS011;31563;51.744;8.252;2023-09-30T15:19:01;3.70;;;1.90;;
45842;SDS011;31563;51.744;8.252;2023-09-30T15:21:29;5.05;;;2.00;;
45842;SDS011;31563;51.744;8.252;2023-09-30T15:23:57;5.13;;;2.22;;
45842;SDS011;31563;51.744;8.252;2023-09-30T15:26:27;5.63;;;2.10;;
45842;SDS011;31563;51.744;8.252;2023-09-30T15:28:55;4.47;;;2.10;;